createdAt,value
2023-05-03T00:00:03.516Z,100583.06
2023-05-03T00:01:10.061Z,100582.19
2023-05-03T00:02:12.474Z,100584.88
2023-05-03T00:03:14.506Z,100587.59
2023-05-03T00:04:18.837Z,100583.19
2023-05-03T00:05:21.006Z,100576.13
2023-05-03T00:06:23.161Z,100574.38
2023-05-03T00:07:25.150Z,100577.84
2023-05-03T00:08:27.054Z,100576.97
2023-05-03T00:09:28.924Z,100572.63
2023-05-03T00:10:31.124Z,100569.13
2023-05-03T00:11:34.182Z,100572.81
2023-05-03T00:12:39.304Z,100576.34
2023-05-03T00:13:41.192Z,100583.38
2023-05-03T00:14:43.430Z,100579.88
2023-05-03T00:15:45.411Z,100587.13
2023-05-03T00:16:47.593Z,100579.09
2023-05-03T00:17:49.548Z,100583.66
2023-05-03T00:18:51.439Z,100588.13
2023-05-03T00:19:55.763Z,100582.81
2023-05-03T00:20:59.733Z,100579.22
2023-05-03T00:22:01.570Z,100580.97
2023-05-03T00:23:03.627Z,100576.53
2023-05-03T00:24:05.957Z,100579.03
2023-05-03T00:25:10.184Z,100574.47
2023-05-03T00:26:12.061Z,100563.97
2023-05-03T00:27:14.137Z,100562.31
2023-05-03T00:28:16.039Z,100574.75
2023-05-03T00:29:21.335Z,100568.59
2023-05-03T00:30:25.428Z,100565.81
2023-05-03T00:31:27.543Z,100565.72
2023-05-03T00:32:29.520Z,100562.13
2023-05-03T00:33:31.461Z,100567.34
2023-05-03T00:34:33.543Z,100572.53
2023-05-03T00:35:35.823Z,100568.91
2023-05-03T00:36:37.677Z,100561.75
2023-05-03T00:37:40.423Z,100563.50
2023-05-03T00:38:42.937Z,100561.75
2023-05-03T00:39:44.959Z,100557.25
2023-05-03T00:41:03.727Z,100552.59
2023-05-03T00:42:05.886Z,100554.31
2023-05-03T00:43:07.819Z,100560.47
2023-05-03T00:44:09.885Z,100553.38
2023-05-03T00:45:11.805Z,100556.91
2023-05-03T00:46:17.458Z,100556.03
2023-05-03T00:47:19.963Z,100554.53
2023-05-03T00:48:22.229Z,100548.53
2023-05-03T00:49:27.101Z,100555.66
2023-05-03T00:50:30.113Z,100547.69
2023-05-03T00:51:32.181Z,100555.63
2023-05-03T00:52:34.893Z,100549.41
2023-05-03T00:53:36.679Z,100553.78
2023-05-03T00:54:39.708Z,100554.72
2023-05-03T00:55:42.783Z,100555.63
2023-05-03T00:56:51.659Z,100558.38
2023-05-03T00:57:53.964Z,100553.94
2023-05-03T00:58:55.905Z,100556.53
2023-05-03T00:59:59.214Z,100561.84
2023-05-03T01:01:02.397Z,100552.09
2023-05-03T01:02:04.647Z,100557.41
2023-05-03T01:03:06.941Z,100562.59
2023-05-03T01:04:09.002Z,100566.94
2023-05-03T01:05:11.256Z,100562.50
2023-05-03T01:06:22.575Z,100565.16
2023-05-03T01:08:10.526Z,100567.81
2023-05-03T01:09:32.557Z,100564.41
2023-05-03T01:10:47.040Z,100566.16
2023-05-03T01:12:06.453Z,100560.13
2023-05-03T01:13:08.464Z,100562.78
2023-05-03T01:14:19.642Z,100561.03
2023-05-03T01:15:39.607Z,100563.75
2023-05-03T01:16:47.829Z,100574.31
2023-05-03T01:17:59.907Z,100577.78
2023-05-03T01:19:07.436Z,100584.94
2023-05-03T01:20:14.290Z,100595.63
2023-05-03T01:21:18.733Z,100598.28
2023-05-03T01:22:44.284Z,100597.47
2023-05-03T01:24:00.957Z,100606.31
2023-05-03T01:25:13.535Z,100601.03
2023-05-03T01:26:18.223Z,100600.22
2023-05-03T01:27:20.220Z,100598.47
2023-05-03T01:28:22.126Z,100589.72
2023-05-03T01:29:24.145Z,100594.16
2023-05-03T01:30:29.341Z,100593.25
2023-05-03T01:31:43.477Z,100599.38
2023-05-03T01:33:07.128Z,100595.88
2023-05-03T01:34:28.300Z,100601.22
2023-05-03T01:35:36.032Z,100596.78
2023-05-03T01:36:43.002Z,100601.94
2023-05-03T01:37:45.103Z,100604.59
2023-05-03T01:38:48.588Z,100601.84
2023-05-03T01:39:59.791Z,100603.63
2023-05-03T01:41:10.828Z,100601.94
2023-05-03T01:42:13.743Z,100597.66
2023-05-03T01:43:18.164Z,100600.25
2023-05-03T01:44:21.911Z,100606.41
2023-05-03T01:45:25.021Z,100604.75
2023-05-03T01:46:27.183Z,100597.69
2023-05-03T01:47:29.286Z,100604.78
2023-05-03T01:48:31.173Z,100602.22
2023-05-03T01:49:34.813Z,100603.94
2023-05-03T01:50:36.701Z,100600.41
2023-05-03T01:51:38.829Z,100608.31
2023-05-03T01:52:41.088Z,100605.63
2023-05-03T01:53:43.085Z,100609.13
2023-05-03T01:54:45.022Z,100605.53
2023-05-03T01:55:46.964Z,100611.63
2023-05-03T01:56:48.770Z,100607.31
2023-05-03T01:57:50.785Z,100610.00
2023-05-03T01:58:52.705Z,100606.41
2023-05-03T01:59:54.750Z,100615.22
2023-05-03T02:00:57.292Z,100620.53
2023-05-03T02:01:59.265Z,100616.06
2023-05-03T02:03:01.228Z,100616.06
2023-05-03T02:04:03.268Z,100615.22
2023-05-03T02:05:05.782Z,100617.78
2023-05-03T02:06:07.938Z,100618.69
2023-05-03T02:07:09.857Z,100619.47
2023-05-03T02:08:11.823Z,100616.72
2023-05-03T02:09:13.962Z,100619.44
2023-05-03T02:10:16.417Z,100618.41
2023-05-03T02:11:18.356Z,100618.34
2023-05-03T02:12:44.536Z,100614.84
2023-05-03T02:13:50.778Z,100607.81
2023-05-03T02:14:55.009Z,100612.28
2023-05-03T02:15:56.924Z,100616.59
2023-05-03T02:16:59.362Z,100621.81
2023-05-03T02:18:03.668Z,100626.13
2023-05-03T02:19:06.989Z,100624.47
2023-05-03T02:20:12.734Z,100628.94
2023-05-03T02:21:14.848Z,100627.31
2023-05-03T02:22:16.787Z,100631.72
2023-05-03T02:23:18.732Z,100627.31
2023-05-03T02:24:20.830Z,100622.78
2023-05-03T02:25:22.687Z,100630.66
2023-05-03T02:26:24.587Z,100627.13
2023-05-03T02:27:26.510Z,100627.03
2023-05-03T02:28:28.485Z,100621.72
2023-05-03T02:29:31.766Z,100627.91
2023-05-03T02:30:36.010Z,100632.28
2023-05-03T02:31:37.878Z,100640.25
2023-05-03T02:32:39.910Z,100642.81
2023-05-03T02:33:42.084Z,100633.91
2023-05-03T02:34:49.115Z,100641.88
2023-05-03T02:35:51.090Z,100633.03
2023-05-03T02:36:55.354Z,100633.91
2023-05-03T02:37:57.527Z,100642.59
2023-05-03T02:38:59.317Z,100635.53
2023-05-03T02:40:01.766Z,100639.97
2023-05-03T02:41:04.045Z,100640.06
2023-05-03T02:42:06.118Z,100640.03
2023-05-03T02:43:08.114Z,100635.69
2023-05-03T02:44:11.915Z,100639.19
2023-05-03T02:45:13.911Z,100640.06
2023-05-03T02:46:16.020Z,100636.53
2023-05-03T02:47:18.421Z,100636.53
2023-05-03T02:48:20.903Z,100636.47
2023-05-03T02:49:23.302Z,100633.72
2023-05-03T02:50:25.485Z,100648.69
2023-05-03T02:51:27.487Z,100648.63
2023-05-03T02:52:29.683Z,100638.81
2023-05-03T02:53:31.687Z,100647.72
2023-05-03T02:54:34.062Z,100643.28
2023-05-03T02:55:36.344Z,100651.28
2023-05-03T02:56:38.564Z,100653.94
2023-05-03T02:57:42.367Z,100653.03
2023-05-03T02:58:44.945Z,100660.28
2023-05-03T02:59:46.767Z,100659.34
2023-05-03T03:00:48.700Z,100659.34
2023-05-03T03:01:50.701Z,100663.66
2023-05-03T03:02:52.957Z,100655.63
2023-05-03T03:03:55.129Z,100661.81
2023-05-03T03:04:57.288Z,100659.13
2023-05-03T03:05:59.375Z,100643.19
2023-05-03T03:07:01.296Z,100645.88
2023-05-03T03:08:03.221Z,100637.00
2023-05-03T03:09:05.158Z,100640.53
2023-05-03T03:10:08.197Z,100634.38
2023-05-03T03:11:10.455Z,100631.72
2023-05-03T03:12:12.441Z,100624.63
2023-05-03T03:13:14.774Z,100627.34
2023-05-03T03:14:16.652Z,100628.19
2023-05-03T03:15:18.690Z,100627.28
2023-05-03T03:16:20.793Z,100626.28
2023-05-03T03:17:22.909Z,100629.66
2023-05-03T03:18:24.777Z,100625.97
2023-05-03T03:19:28.923Z,100631.09
2023-05-03T03:20:30.609Z,100634.47
2023-05-03T03:21:32.883Z,100626.63
2023-05-03T03:22:34.810Z,100619.63
2023-05-03T03:23:36.665Z,100618.75
2023-05-03T03:24:38.913Z,100616.88
2023-05-03T03:25:42.141Z,100628.34
2023-05-03T03:26:44.124Z,100629.25
2023-05-03T03:27:46.174Z,100643.25
2023-05-03T03:28:49.929Z,100651.13
2023-05-03T03:29:51.845Z,100648.47
2023-05-03T03:30:53.775Z,100655.72
2023-05-03T03:31:55.707Z,100664.69
2023-05-03T03:32:57.898Z,100661.25
2023-05-03T03:33:59.926Z,100670.13
2023-05-03T03:35:01.940Z,100667.47
2023-05-03T03:36:06.681Z,100679.94
2023-05-03T03:37:08.595Z,100661.44
2023-05-03T03:38:10.494Z,100657.97
2023-05-03T03:39:12.674Z,100658.06
2023-05-03T03:40:14.697Z,100652.66
2023-05-03T03:41:16.686Z,100642.84
2023-05-03T03:42:20.920Z,100643.75
2023-05-03T03:43:22.962Z,100655.19
2023-05-03T03:44:24.860Z,100656.03
2023-05-03T03:45:26.873Z,100654.16
2023-05-03T03:46:28.841Z,100663.91
2023-05-03T03:47:30.968Z,100656.78
2023-05-03T03:48:32.880Z,100660.31
2023-05-03T03:49:34.876Z,100661.25
2023-05-03T03:50:37.419Z,100659.50
2023-05-03T03:51:39.928Z,100659.50
2023-05-03T03:52:41.921Z,100659.50
2023-05-03T03:53:44.060Z,100664.78
2023-05-03T03:54:45.914Z,100662.03
2023-05-03T03:55:47.970Z,100662.88
2023-05-03T03:56:51.265Z,100669.13
2023-05-03T03:57:53.212Z,100665.56
2023-05-03T03:58:55.089Z,100671.78
2023-05-03T03:59:57.920Z,100676.09
2023-05-03T04:01:00.908Z,100676.03
2023-05-03T04:02:03.006Z,100678.63
2023-05-03T04:03:07.748Z,100686.50
2023-05-03T04:04:10.141Z,100689.13
2023-05-03T04:05:12.195Z,100697.84
2023-05-03T04:06:14.281Z,100696.81
2023-05-03T04:07:16.439Z,100703.88
2023-05-03T04:08:18.677Z,100706.41
2023-05-03T04:09:21.658Z,100705.47
2023-05-03T04:10:23.698Z,100700.97
2023-05-03T04:11:25.583Z,100704.50
2023-05-03T04:12:27.594Z,100711.56
2023-05-03T04:13:29.602Z,100706.25
2023-05-03T04:14:31.542Z,100710.75
2023-05-03T04:15:33.364Z,100714.31
2023-05-03T04:16:35.589Z,100716.16
2023-05-03T04:17:39.151Z,100717.06
2023-05-03T04:18:42.029Z,100717.06
2023-05-03T04:19:43.925Z,100719.66
2023-05-03T04:20:45.902Z,100722.25
2023-05-03T04:21:47.849Z,100720.44
2023-05-03T04:22:49.861Z,100718.63
2023-05-03T04:23:52.034Z,100720.34
2023-05-03T04:24:54.879Z,100715.88
2023-05-03T04:25:57.304Z,100714.03
2023-05-03T04:27:02.169Z,100727.25
2023-05-03T04:28:04.492Z,100718.41
2023-05-03T04:29:07.140Z,100725.56
2023-05-03T04:30:09.960Z,100711.38
2023-05-03T04:31:12.970Z,100719.28
2023-05-03T04:32:16.962Z,100721.91
2023-05-03T04:33:22.590Z,100717.44
2023-05-03T04:34:25.091Z,100710.38
2023-05-03T04:35:27.244Z,100708.75
2023-05-03T04:36:30.045Z,100716.78
2023-05-03T04:37:33.148Z,100719.47
2023-05-03T04:38:35.426Z,100712.44
2023-05-03T04:39:37.392Z,100710.56
2023-05-03T04:40:39.183Z,100707.06
2023-05-03T04:41:42.138Z,100709.69
2023-05-03T04:42:44.092Z,100707.78
2023-05-03T04:43:46.430Z,100703.22
2023-05-03T04:44:48.379Z,100709.31
2023-05-03T04:45:52.652Z,100705.75
2023-05-03T04:46:54.636Z,100711.06
2023-05-03T04:47:56.656Z,100711.94
2023-05-03T04:48:58.705Z,100712.78
2023-05-03T04:50:00.812Z,100710.84
2023-05-03T04:51:03.194Z,100717.78
2023-05-03T04:52:05.283Z,100715.66
2023-05-03T04:53:07.533Z,100718.63
2023-05-03T04:54:09.584Z,100718.84
2023-05-03T04:55:11.838Z,100722.84
2023-05-03T04:56:13.971Z,100721.47
2023-05-03T04:57:16.117Z,100732.69
2023-05-03T04:58:18.031Z,100725.47
2023-05-03T04:59:19.871Z,100719.91
2023-05-03T05:00:23.513Z,100725.16
2023-05-03T05:01:28.361Z,100733.91
2023-05-03T05:02:30.408Z,100732.16
2023-05-03T05:03:32.333Z,100731.75
2023-05-03T05:04:34.324Z,100732.41
2023-05-03T05:05:36.209Z,100731.88
2023-05-03T05:06:38.294Z,100739.06
2023-05-03T05:07:40.913Z,100734.78
2023-05-03T05:08:42.828Z,100742.91
2023-05-03T05:09:44.834Z,100740.31
2023-05-03T05:10:46.833Z,100741.38
2023-05-03T05:11:48.980Z,100742.34
2023-05-03T05:12:50.920Z,100743.13
2023-05-03T05:13:53.151Z,100738.63
2023-05-03T05:14:55.266Z,100735.88
2023-05-03T05:15:57.890Z,100735.97
2023-05-03T05:17:00.193Z,100733.38
2023-05-03T05:18:02.153Z,100729.03
2023-05-03T05:19:04.455Z,100728.97
2023-05-03T05:20:08.203Z,100735.97
2023-05-03T05:21:10.350Z,100734.13
2023-05-03T05:22:12.320Z,100736.63
2023-05-03T05:23:14.257Z,100735.53
2023-05-03T05:24:16.206Z,100736.38
2023-05-03T05:25:18.410Z,100744.13
2023-05-03T05:26:21.825Z,100742.19
2023-05-03T05:27:23.915Z,100740.31
2023-05-03T05:28:25.951Z,100746.34
2023-05-03T05:29:27.904Z,100735.63
2023-05-03T05:30:29.832Z,100739.00
2023-05-03T05:31:32.310Z,100741.47
2023-05-03T05:32:34.338Z,100745.00
2023-05-03T05:33:36.293Z,100743.16
2023-05-03T05:34:44.762Z,100734.34
2023-05-03T05:35:49.112Z,100731.00
2023-05-03T05:36:52.398Z,100727.47
2023-05-03T05:37:54.365Z,100733.66
2023-05-03T05:38:56.592Z,100731.88
2023-05-03T05:39:58.593Z,100725.56
2023-05-03T05:41:00.595Z,100720.91
2023-05-03T05:42:02.978Z,100713.75
2023-05-03T05:43:05.228Z,100718.06
2023-05-03T05:44:07.532Z,100718.09
2023-05-03T05:45:09.742Z,100717.22
2023-05-03T05:46:11.846Z,100721.50
2023-05-03T05:47:13.709Z,100717.81
2023-05-03T05:48:15.658Z,100726.59
2023-05-03T05:49:17.530Z,100729.22
2023-05-03T05:50:19.719Z,100721.16
2023-05-03T05:51:21.816Z,100730.09
2023-05-03T05:52:23.942Z,100735.47
2023-05-03T05:53:25.711Z,100731.88
2023-05-03T05:54:28.693Z,100738.78
2023-05-03T05:55:32.410Z,100740.28
2023-05-03T05:56:34.239Z,100732.97
2023-05-03T05:57:35.995Z,100738.94
2023-05-03T05:58:38.593Z,100737.72
2023-05-03T05:59:41.061Z,100740.13
2023-05-03T06:00:43.113Z,100733.63
2023-05-03T06:01:46.437Z,100745.81
2023-05-03T06:02:49.289Z,100738.59
2023-05-03T06:03:51.369Z,100749.81
2023-05-03T06:04:53.520Z,100743.38
2023-05-03T06:05:55.836Z,100753.13
2023-05-03T06:06:57.856Z,100746.78
2023-05-03T06:07:59.956Z,100745.88
2023-05-03T06:09:09.734Z,100746.66
2023-05-03T06:10:18.960Z,100753.63
2023-05-03T06:11:21.812Z,100744.59
2023-05-03T06:12:23.778Z,100747.09
2023-05-03T06:13:26.502Z,100757.09
2023-05-03T06:14:28.495Z,100752.63
2023-05-03T06:15:30.499Z,100754.28
2023-05-03T06:16:32.494Z,100752.47
2023-05-03T06:17:35.296Z,100752.44
2023-05-03T06:18:37.120Z,100749.78
2023-05-03T06:19:39.495Z,100757.72
2023-05-03T06:20:41.521Z,100767.25
2023-05-03T06:21:43.447Z,100769.88
2023-05-03T06:22:45.354Z,100772.47
2023-05-03T06:23:47.529Z,100774.22
2023-05-03T06:24:49.304Z,100781.41
2023-05-03T06:25:51.560Z,100778.81
2023-05-03T06:26:53.601Z,100779.16
2023-05-03T06:27:55.598Z,100781.78
2023-05-03T06:28:57.467Z,100783.13
2023-05-03T06:29:59.460Z,100780.13
2023-05-03T06:31:01.613Z,100784.16
2023-05-03T06:32:03.784Z,100792.22
2023-05-03T06:33:05.655Z,100789.50
2023-05-03T06:34:10.282Z,100791.47
2023-05-03T06:35:12.730Z,100795.44
2023-05-03T06:36:14.699Z,100791.59
2023-05-03T06:37:17.520Z,100794.78
2023-05-03T06:38:19.861Z,100800.38
2023-05-03T06:39:21.845Z,100794.47
2023-05-03T06:40:26.026Z,100793.91
2023-05-03T06:41:27.961Z,100795.00
2023-05-03T06:42:29.896Z,100798.66
2023-05-03T06:43:31.792Z,100794.38
2023-05-03T06:44:34.136Z,100803.25
2023-05-03T06:45:38.757Z,100811.25
2023-05-03T06:46:40.717Z,100807.00
2023-05-03T06:47:43.017Z,100808.06
2023-05-03T06:48:45.470Z,100816.06
2023-05-03T06:49:48.133Z,100811.59
2023-05-03T06:50:50.984Z,100811.47
2023-05-03T06:51:52.772Z,100811.63
2023-05-03T06:52:54.919Z,100816.97
2023-05-03T06:54:00.439Z,100822.28
2023-05-03T06:55:02.773Z,100816.06
2023-05-03T06:56:05.551Z,100826.59
2023-05-03T06:57:07.951Z,100823.88
2023-05-03T06:58:11.802Z,100828.16
2023-05-03T06:59:13.873Z,100828.09
2023-05-03T07:00:16.188Z,100830.94
2023-05-03T07:01:19.236Z,100823.00
2023-05-03T07:02:21.920Z,100833.19
2023-05-03T07:03:24.160Z,100832.97
2023-05-03T07:04:26.195Z,100834.00
2023-05-03T07:05:28.402Z,100831.34
2023-05-03T07:06:37.732Z,100836.50
2023-05-03T07:07:46.763Z,100838.06
2023-05-03T07:08:49.050Z,100835.47
2023-05-03T07:09:51.165Z,100834.72
2023-05-03T07:10:53.011Z,100829.19
2023-05-03T07:11:54.916Z,100837.03
2023-05-03T07:12:57.450Z,100831.59
2023-05-03T07:13:59.343Z,100835.88
2023-05-03T07:15:01.240Z,100834.81
2023-05-03T07:16:03.706Z,100834.47
2023-05-03T07:17:05.870Z,100833.88
2023-05-03T07:18:08.396Z,100836.63
2023-05-03T07:19:10.308Z,100831.34
2023-05-03T07:20:12.772Z,100827.63
2023-05-03T07:21:15.568Z,100826.38
2023-05-03T07:22:18.163Z,100829.19
2023-05-03T07:23:20.068Z,100825.09
2023-05-03T07:24:22.047Z,100827.75
2023-05-03T07:25:23.959Z,100824.72
2023-05-03T07:26:27.705Z,100827.72
2023-05-03T07:27:29.612Z,100821.38
2023-05-03T07:28:31.884Z,100828.53
2023-05-03T07:29:33.817Z,100829.25
2023-05-03T07:30:35.863Z,100819.56
2023-05-03T07:31:37.785Z,100824.53
2023-05-03T07:32:39.869Z,100822.72
2023-05-03T07:33:42.244Z,100815.44
2023-05-03T07:34:44.464Z,100824.53
2023-05-03T07:35:47.095Z,100823.63
2023-05-03T07:36:49.050Z,100823.44
2023-05-03T07:37:50.901Z,100825.19
2023-05-03T07:38:52.940Z,100830.00
2023-05-03T07:39:54.854Z,100826.78
2023-05-03T07:40:56.884Z,100834.53
2023-05-03T07:41:58.952Z,100832.75
2023-05-03T07:43:00.905Z,100837.88
2023-05-03T07:44:02.725Z,100828.66
2023-05-03T07:45:05.072Z,100835.34
2023-05-03T07:46:07.734Z,100831.94
2023-05-03T07:47:10.818Z,100831.53
2023-05-03T07:48:12.667Z,100832.81
2023-05-03T07:49:14.769Z,100837.16
2023-05-03T07:50:16.661Z,100843.81
2023-05-03T07:51:18.716Z,100838.94
2023-05-03T07:52:21.010Z,100835.06
2023-05-03T07:53:22.939Z,100837.19
2023-05-03T07:54:24.759Z,100845.81
2023-05-03T07:55:28.464Z,100837.41
2023-05-03T07:56:31.045Z,100846.69
2023-05-03T07:57:33.502Z,100851.69
2023-05-03T07:58:40.381Z,100850.47
2023-05-03T07:59:43.557Z,100855.81
2023-05-03T08:00:45.375Z,100853.34
2023-05-03T08:01:47.407Z,100851.25
2023-05-03T08:02:49.278Z,100857.78
2023-05-03T08:03:51.468Z,100859.03
2023-05-03T08:04:54.934Z,100859.72
2023-05-03T08:05:57.294Z,100856.81
2023-05-03T08:07:02.986Z,100854.16
2023-05-03T08:08:05.734Z,100858.34
2023-05-03T08:09:07.513Z,100859.41
2023-05-03T08:10:10.443Z,100856.13
2023-05-03T08:11:12.514Z,100864.06
2023-05-03T08:12:14.515Z,100857.97
2023-05-03T08:13:17.751Z,100865.88
2023-05-03T08:14:19.983Z,100858.66
2023-05-03T08:15:21.861Z,100851.69
2023-05-03T08:16:24.260Z,100861.22
2023-05-03T08:17:26.411Z,100855.25
2023-05-03T08:18:28.684Z,100862.25
2023-05-03T08:19:31.167Z,100862.69
2023-05-03T08:20:36.911Z,100856.09
2023-05-03T08:21:39.182Z,100866.47
2023-05-03T08:22:41.547Z,100867.69
2023-05-03T08:23:43.420Z,100859.56
2023-05-03T08:24:45.318Z,100862.91
2023-05-03T08:25:47.405Z,100859.78
2023-05-03T08:26:49.682Z,100857.81
2023-05-03T08:27:52.975Z,100866.69
2023-05-03T08:28:55.557Z,100857.91
2023-05-03T08:29:57.687Z,100861.78
2023-05-03T08:31:00.084Z,100858.41
2023-05-03T08:32:02.489Z,100859.13
2023-05-03T08:33:04.793Z,100862.44
2023-05-03T08:34:08.123Z,100862.16
2023-05-03T08:35:11.341Z,100850.19
2023-05-03T08:36:13.390Z,100861.69
2023-05-03T08:37:16.573Z,100858.72
2023-05-03T08:38:18.401Z,100854.00
2023-05-03T08:39:20.292Z,100846.63
2023-05-03T08:40:23.002Z,100855.22
2023-05-03T08:41:30.864Z,100856.78
2023-05-03T08:42:33.879Z,100854.13
2023-05-03T08:43:49.123Z,100850.47
2023-05-03T08:44:51.094Z,100847.50
2023-05-03T08:45:53.054Z,100842.56
2023-05-03T08:46:55.156Z,100848.34
2023-05-03T08:47:57.282Z,100848.75
2023-05-03T08:49:00.247Z,100853.75
2023-05-03T08:50:05.437Z,100856.81
2023-05-03T08:51:10.285Z,100869.94
2023-05-03T08:52:15.974Z,100864.28
2023-05-03T08:53:17.826Z,100862.94
2023-05-03T08:54:22.233Z,100855.63
2023-05-03T08:55:24.051Z,100859.88
2023-05-03T08:56:42.539Z,100858.41
2023-05-03T08:57:44.368Z,100862.69
2023-05-03T08:58:46.504Z,100863.28
2023-05-03T08:59:58.993Z,100863.75
2023-05-03T09:01:08.479Z,100862.22
2023-05-03T09:02:12.645Z,100861.03
2023-05-03T09:03:14.755Z,100864.09
2023-05-03T09:04:17.531Z,100865.25
2023-05-03T09:05:19.643Z,100859.38
2023-05-03T09:06:28.589Z,100859.03
2023-05-03T09:07:30.612Z,100856.97
2023-05-03T09:08:43.379Z,100859.81
2023-05-03T09:09:47.306Z,100860.19
2023-05-03T09:10:49.289Z,100859.72
2023-05-03T09:11:51.241Z,100860.16
2023-05-03T09:12:59.727Z,100859.69
2023-05-03T09:14:16.115Z,100853.22
2023-05-03T09:15:23.608Z,100858.66
2023-05-03T09:16:30.323Z,100863.59
2023-05-03T09:17:32.303Z,100861.34
2023-05-03T09:18:34.301Z,100857.19
2023-05-03T09:19:58.752Z,100853.63
2023-05-03T09:21:00.586Z,100856.59
2023-05-03T09:22:07.577Z,100851.94
2023-05-03T09:23:10.070Z,100860.25
2023-05-03T09:24:17.377Z,100859.72
2023-05-03T09:25:19.445Z,100864.38
2023-05-03T09:26:37.309Z,100863.09
2023-05-03T09:27:39.474Z,100861.41
2023-05-03T09:28:42.926Z,100864.75
2023-05-03T09:29:44.816Z,100869.94
2023-05-03T09:30:48.966Z,100864.69
2023-05-03T09:32:02.850Z,100864.59
2023-05-03T09:33:05.116Z,100861.31
2023-05-03T09:34:23.199Z,100859.38
2023-05-03T09:35:25.446Z,100858.00
2023-05-03T09:36:28.089Z,100854.97
2023-05-03T09:37:38.895Z,100865.06
2023-05-03T09:38:40.984Z,100849.94
2023-05-03T09:39:48.916Z,100856.22
2023-05-03T09:40:50.870Z,100860.03
2023-05-03T09:41:53.278Z,100861.59
2023-05-03T09:43:11.390Z,100856.69
2023-05-03T09:44:13.897Z,100856.84
2023-05-03T09:45:23.902Z,100855.41
2023-05-03T09:46:26.309Z,100856.00
2023-05-03T09:47:31.991Z,100864.56
2023-05-03T09:48:35.155Z,100860.50
2023-05-03T09:49:38.626Z,100862.66
2023-05-03T09:50:41.254Z,100858.00
2023-05-03T09:51:43.385Z,100869.41
2023-05-03T09:52:46.904Z,100862.06
2023-05-03T09:53:49.301Z,100863.63
2023-05-03T09:54:54.009Z,100869.41
2023-05-03T09:55:57.098Z,100878.19
2023-05-03T09:57:00.844Z,100865.97
2023-05-03T09:58:09.188Z,100867.19
2023-05-03T09:59:11.178Z,100873.75
2023-05-03T10:00:14.074Z,100872.91
2023-05-03T10:01:16.697Z,100869.41
2023-05-03T10:02:18.649Z,100865.41
2023-05-03T10:03:44.224Z,100862.91
2023-05-03T10:04:53.563Z,100873.31
2023-05-03T10:05:56.332Z,100865.59
2023-05-03T10:07:04.755Z,100870.00
2023-05-03T10:08:07.693Z,100868.91
2023-05-03T10:09:16.598Z,100870.56
2023-05-03T10:10:19.355Z,100867.00
2023-05-03T10:11:27.003Z,100864.16
2023-05-03T10:12:29.593Z,100876.00
2023-05-03T10:13:32.063Z,100869.59
2023-05-03T10:14:34.708Z,100872.44
2023-05-03T10:15:37.946Z,100869.25
2023-05-03T10:16:47.885Z,100871.25
2023-05-03T10:17:53.631Z,100868.81
2023-05-03T10:19:15.877Z,100862.16
2023-05-03T10:20:31.266Z,100864.13
2023-05-03T10:21:45.431Z,100872.91
2023-05-03T10:23:05.841Z,100867.69
2023-05-03T10:24:13.192Z,100868.47
2023-05-03T10:25:16.050Z,100865.94
2023-05-03T10:26:18.484Z,100868.41
2023-05-03T10:27:21.729Z,100867.19
2023-05-03T10:28:23.586Z,100865.25
2023-05-03T10:29:52.513Z,100871.66
2023-05-03T10:30:54.633Z,100864.72
2023-05-03T10:31:56.626Z,100867.31
2023-05-03T10:33:18.871Z,100862.25
2023-05-03T10:34:22.752Z,100869.91
2023-05-03T10:35:29.590Z,100874.41
2023-05-03T10:36:45.885Z,100870.25
2023-05-03T10:37:52.051Z,100873.38
2023-05-03T10:38:54.084Z,100871.81
2023-05-03T10:39:58.456Z,100868.09
2023-05-03T10:41:03.915Z,100871.22
2023-05-03T10:42:08.642Z,100886.50
2023-05-03T10:43:30.020Z,100884.53
2023-05-03T10:44:51.977Z,100871.41
2023-05-03T10:45:53.948Z,100882.63
2023-05-03T10:46:56.322Z,100880.53
2023-05-03T10:48:13.397Z,100875.06
2023-05-03T10:49:19.353Z,100876.31
2023-05-03T10:50:30.231Z,100877.44
2023-05-03T10:51:37.439Z,100886.50
2023-05-03T10:52:39.533Z,100877.28
2023-05-03T10:53:42.896Z,100878.59
2023-05-03T10:54:44.780Z,100878.09
2023-05-03T10:56:08.322Z,100883.59
2023-05-03T10:57:12.150Z,100876.06
2023-05-03T10:58:14.840Z,100883.22
2023-05-03T10:59:16.630Z,100876.09
2023-05-03T11:00:33.630Z,100885.19
2023-05-03T11:01:36.555Z,100874.50
2023-05-03T11:02:43.776Z,100881.63
2023-05-03T11:04:10.249Z,100880.72
2023-05-03T11:05:15.192Z,100888.91
2023-05-03T11:09:15.040Z,100883.28
2023-05-03T11:10:18.252Z,100889.00
2023-05-03T11:11:21.264Z,100878.25
2023-05-03T11:12:23.285Z,100888.59
2023-05-03T11:13:25.825Z,100878.25
2023-05-03T11:14:28.004Z,100882.47
2023-05-03T11:15:31.063Z,100881.31
2023-05-03T11:16:33.461Z,100878.03
2023-05-03T11:17:36.525Z,100875.22
2023-05-03T11:18:38.651Z,100878.75
2023-05-03T11:19:44.076Z,100876.25
2023-05-03T11:20:46.058Z,100876.81
2023-05-03T11:21:49.061Z,100878.59
2023-05-03T11:22:51.158Z,100874.94
2023-05-03T11:23:53.173Z,100881.09
2023-05-03T11:24:56.182Z,100879.34
2023-05-03T11:25:58.415Z,100880.19
2023-05-03T11:27:08.039Z,100879.44
2023-05-03T11:28:11.109Z,100873.16
2023-05-03T11:29:14.243Z,100875.25
2023-05-03T11:30:16.520Z,100867.72
2023-05-03T11:31:18.686Z,100862.53
2023-05-03T11:32:21.656Z,100867.63
2023-05-03T11:33:23.934Z,100869.19
2023-05-03T11:34:26.623Z,100872.13
2023-05-03T11:35:33.160Z,100873.09
2023-05-03T11:36:35.201Z,100873.59
2023-05-03T11:37:37.602Z,100874.97
2023-05-03T11:38:40.444Z,100872.25
2023-05-03T11:39:42.655Z,100869.94
2023-05-03T11:40:44.722Z,100872.72
2023-05-03T11:42:01.526Z,100865.88
2023-05-03T11:43:04.282Z,100868.00
2023-05-03T11:44:15.879Z,100865.50
2023-05-03T11:45:41.367Z,100870.50
2023-05-03T11:46:44.039Z,100867.59
2023-05-03T11:47:46.674Z,100862.28
2023-05-03T11:48:49.243Z,100862.41
2023-05-03T11:49:56.399Z,100866.75
2023-05-03T11:50:58.660Z,100860.47
2023-05-03T11:52:01.314Z,100872.00
2023-05-03T11:53:03.532Z,100862.97
2023-05-03T11:54:21.030Z,100864.53
2023-05-03T11:55:26.759Z,100861.28
2023-05-03T11:56:28.766Z,100868.69
2023-05-03T11:57:32.490Z,100856.28
2023-05-03T11:58:35.387Z,100858.88
2023-05-03T11:59:40.655Z,100859.66
2023-05-03T12:00:50.851Z,100855.31
2023-05-03T12:01:53.785Z,100854.91
2023-05-03T12:03:00.269Z,100855.28
2023-05-03T12:04:05.828Z,100854.09
2023-05-03T12:05:10.373Z,100857.94
2023-05-03T12:06:13.827Z,100857.75
2023-05-03T12:07:19.354Z,100856.78
2023-05-03T12:08:30.614Z,100858.34
2023-05-03T12:09:35.573Z,100852.38
2023-05-03T12:10:38.352Z,100856.19
2023-05-03T12:11:44.142Z,100847.19
2023-05-03T12:12:57.578Z,100854.78